sensor_id;sensor_type;location;lat;lon;timestamp;P1;durP1;ratioP1;P2;durP2;ratioP2
50443;SDS011;36370;52.216;21.142;2022-11-25T00:00:34;228.90;;;61.00;;
50443;SDS011;36370;52.216;21.142;2022-11-25T00:04:54;209.95;;;57.03;;
50443;SDS011;36370;52.216;21.142;2022-11-25T00:08:57;190.18;;;53.22;;
50443;SDS011;36370;52.216;21.142;2022-11-25T00:13:00;192.18;;;53.95;;
50443;SDS011;36370;52.216;21.142;2022-11-25T00:17:02;167.95;;;49.25;;
50443;SDS011;36370;52.216;21.142;2022-11-25T00:21:08;162.27;;;48.58;;
50443;SDS011;36370;52.216;21.142;2022-11-25T00:25:12;189.27;;;51.75;;
50443;SDS011;36370;52.216;21.142;2022-11-25T00:29:13;173.63;;;50.90;;
50443;SDS011;36370;52.216;21.142;2022-11-25T00:33:15;190.80;;;51.85;;
50443;SDS011;36370;52.216;21.142;2022-11-25T00:37:20;185.85;;;51.22;;
50443;SDS011;36370;52.216;21.142;2022-11-25T00:41:23;163.25;;;46.85;;
50443;SDS011;36370;52.216;21.142;2022-11-25T00:46:01;174.23;;;49.47;;
50443;SDS011;36370;52.216;21.142;2022-11-25T00:50:03;195.10;;;53.35;;
50443;SDS011;36370;52.216;21.142;2022-11-25T00:54:05;159.80;;;46.55;;
50443;SDS011;36370;52.216;21.142;2022-11-25T00:58:07;176.65;;;50.05;;
50443;SDS011;36370;52.216;21.142;2022-11-25T01:02:09;160.60;;;47.70;;
50443;SDS011;36370;52.216;21.142;2022-11-25T01:06:12;175.25;;;48.47;;
50443;SDS011;36370;52.216;21.142;2022-11-25T01:10:14;183.93;;;50.65;;
50443;SDS011;36370;52.216;21.142;2022-11-25T01:14:17;178.70;;;51.50;;
50443;SDS011;36370;52.216;21.142;2022-11-25T01:18:20;184.50;;;51.10;;
50443;SDS011;36370;52.216;21.142;2022-11-25T01:22:22;186.77;;;52.05;;
50443;SDS011;36370;52.216;21.142;2022-11-25T01:26:24;199.93;;;53.55;;
50443;SDS011;36370;52.216;21.142;2022-11-25T01:30:27;196.52;;;51.72;;
50443;SDS011;36370;52.216;21.142;2022-11-25T01:34:29;183.40;;;53.38;;
50443;SDS011;36370;52.216;21.142;2022-11-25T01:38:33;190.32;;;54.05;;
50443;SDS011;36370;52.216;21.142;2022-11-25T01:42:41;191.40;;;51.60;;
50443;SDS011;36370;52.216;21.142;2022-11-25T01:51:04;183.65;;;49.65;;
50443;SDS011;36370;52.216;21.142;2022-11-25T01:55:11;189.90;;;50.90;;
50443;SDS011;36370;52.216;21.142;2022-11-25T01:59:18;179.73;;;47.00;;
50443;SDS011;36370;52.216;21.142;2022-11-25T02:03:22;185.18;;;53.53;;
50443;SDS011;36370;52.216;21.142;2022-11-25T02:07:42;180.07;;;48.30;;
50443;SDS011;36370;52.216;21.142;2022-11-25T02:11:47;207.27;;;54.77;;
50443;SDS011;36370;52.216;21.142;2022-11-25T02:15:49;194.75;;;52.67;;
50443;SDS011;36370;52.216;21.142;2022-11-25T02:20:05;194.73;;;51.25;;
50443;SDS011;36370;52.216;21.142;2022-11-25T02:24:13;187.90;;;50.70;;
50443;SDS011;36370;52.216;21.142;2022-11-25T02:28:23;216.50;;;52.72;;
50443;SDS011;36370;52.216;21.142;2022-11-25T02:32:28;198.07;;;50.05;;
50443;SDS011;36370;52.216;21.142;2022-11-25T02:36:30;186.52;;;50.47;;
50443;SDS011;36370;52.216;21.142;2022-11-25T02:40:33;184.23;;;50.97;;
50443;SDS011;36370;52.216;21.142;2022-11-25T02:44:48;221.25;;;53.50;;
50443;SDS011;36370;52.216;21.142;2022-11-25T02:48:51;211.07;;;53.67;;
50443;SDS011;36370;52.216;21.142;2022-11-25T02:53:10;194.25;;;53.63;;
50443;SDS011;36370;52.216;21.142;2022-11-25T02:57:12;198.30;;;50.63;;
50443;SDS011;36370;52.216;21.142;2022-11-25T03:01:14;168.90;;;48.70;;
50443;SDS011;36370;52.216;21.142;2022-11-25T03:05:16;198.90;;;50.72;;
50443;SDS011;36370;52.216;21.142;2022-11-25T03:09:18;183.10;;;48.80;;
50443;SDS011;36370;52.216;21.142;2022-11-25T03:13:21;218.43;;;53.30;;
50443;SDS011;36370;52.216;21.142;2022-11-25T03:17:23;183.10;;;50.95;;
50443;SDS011;36370;52.216;21.142;2022-11-25T03:21:25;173.98;;;48.55;;
50443;SDS011;36370;52.216;21.142;2022-11-25T03:25:27;219.27;;;53.35;;
50443;SDS011;36370;52.216;21.142;2022-11-25T03:29:29;197.90;;;51.28;;
50443;SDS011;36370;52.216;21.142;2022-11-25T03:33:32;215.65;;;53.40;;
50443;SDS011;36370;52.216;21.142;2022-11-25T03:37:34;205.27;;;54.58;;
50443;SDS011;36370;52.216;21.142;2022-11-25T03:41:36;214.48;;;55.13;;
50443;SDS011;36370;52.216;21.142;2022-11-25T03:45:38;193.65;;;48.28;;
50443;SDS011;36370;52.216;21.142;2022-11-25T03:49:42;184.93;;;53.67;;
50443;SDS011;36370;52.216;21.142;2022-11-25T03:53:44;191.85;;;48.83;;
50443;SDS011;36370;52.216;21.142;2022-11-25T03:57:47;231.00;;;59.45;;
50443;SDS011;36370;52.216;21.142;2022-11-25T04:01:49;216.00;;;52.08;;
50443;SDS011;36370;52.216;21.142;2022-11-25T04:05:51;210.32;;;51.10;;
50443;SDS011;36370;52.216;21.142;2022-11-25T04:09:54;197.55;;;53.40;;
50443;SDS011;36370;52.216;21.142;2022-11-25T04:13:59;194.95;;;51.55;;
50443;SDS011;36370;52.216;21.142;2022-11-25T04:18:03;247.63;;;59.25;;
50443;SDS011;36370;52.216;21.142;2022-11-25T04:22:06;240.88;;;55.45;;
50443;SDS011;36370;52.216;21.142;2022-11-25T04:26:12;235.20;;;55.33;;
50443;SDS011;36370;52.216;21.142;2022-11-25T04:30:14;205.55;;;49.63;;
50443;SDS011;36370;52.216;21.142;2022-11-25T04:34:18;236.32;;;56.20;;
50443;SDS011;36370;52.216;21.142;2022-11-25T04:38:22;258.80;;;60.33;;
50443;SDS011;36370;52.216;21.142;2022-11-25T04:42:25;261.83;;;58.83;;
50443;SDS011;36370;52.216;21.142;2022-11-25T04:46:36;222.77;;;53.78;;
50443;SDS011;36370;52.216;21.142;2022-11-25T04:50:41;266.35;;;58.67;;
50443;SDS011;36370;52.216;21.142;2022-11-25T04:54:46;235.43;;;56.60;;
50443;SDS011;36370;52.216;21.142;2022-11-25T04:58:48;243.05;;;57.75;;
50443;SDS011;36370;52.216;21.142;2022-11-25T05:03:13;312.40;;;61.65;;
50443;SDS011;36370;52.216;21.142;2022-11-25T05:07:15;284.70;;;61.15;;
50443;SDS011;36370;52.216;21.142;2022-11-25T05:11:21;261.70;;;57.75;;
50443;SDS011;36370;52.216;21.142;2022-11-25T05:15:24;391.15;;;73.82;;
50443;SDS011;36370;52.216;21.142;2022-11-25T05:19:27;286.60;;;61.97;;
50443;SDS011;36370;52.216;21.142;2022-11-25T05:23:30;242.93;;;55.65;;
50443;SDS011;36370;52.216;21.142;2022-11-25T05:27:33;296.38;;;62.03;;
50443;SDS011;36370;52.216;21.142;2022-11-25T05:31:40;238.30;;;52.65;;
50443;SDS011;36370;52.216;21.142;2022-11-25T05:35:42;268.02;;;58.92;;
50443;SDS011;36370;52.216;21.142;2022-11-25T05:39:44;306.60;;;62.47;;
50443;SDS011;36370;52.216;21.142;2022-11-25T05:44:03;261.52;;;58.70;;
50443;SDS011;36370;52.216;21.142;2022-11-25T05:48:07;276.58;;;60.53;;
50443;SDS011;36370;52.216;21.142;2022-11-25T05:52:09;422.02;;;73.43;;
50443;SDS011;36370;52.216;21.142;2022-11-25T05:56:20;275.60;;;58.92;;
50443;SDS011;36370;52.216;21.142;2022-11-25T06:00:49;303.35;;;60.63;;
50443;SDS011;36370;52.216;21.142;2022-11-25T06:04:51;367.23;;;71.03;;
50443;SDS011;36370;52.216;21.142;2022-11-25T06:08:53;279.00;;;63.58;;
50443;SDS011;36370;52.216;21.142;2022-11-25T06:12:56;323.02;;;70.38;;
50443;SDS011;36370;52.216;21.142;2022-11-25T06:16:58;333.27;;;67.68;;
50443;SDS011;36370;52.216;21.142;2022-11-25T06:21:11;326.83;;;70.53;;
50443;SDS011;36370;52.216;21.142;2022-11-25T06:25:13;300.13;;;64.38;;
50443;SDS011;36370;52.216;21.142;2022-11-25T06:29:16;331.40;;;71.30;;
50443;SDS011;36370;52.216;21.142;2022-11-25T06:33:22;297.65;;;68.40;;
50443;SDS011;36370;52.216;21.142;2022-11-25T06:37:24;270.25;;;66.00;;
50443;SDS011;36370;52.216;21.142;2022-11-25T06:41:26;271.83;;;66.38;;
50443;SDS011;36370;52.216;21.142;2022-11-25T06:45:28;338.90;;;86.95;;
50443;SDS011;36370;52.216;21.142;2022-11-25T06:49:30;360.95;;;96.80;;
50443;SDS011;36370;52.216;21.142;2022-11-25T06:53:32;317.10;;;93.50;;
50443;SDS011;36370;52.216;21.142;2022-11-25T06:57:35;299.23;;;87.95;;
50443;SDS011;36370;52.216;21.142;2022-11-25T07:01:37;251.55;;;70.25;;
50443;SDS011;36370;52.216;21.142;2022-11-25T07:05:39;242.73;;;63.10;;
50443;SDS011;36370;52.216;21.142;2022-11-25T07:09:41;242.60;;;63.33;;
50443;SDS011;36370;52.216;21.142;2022-11-25T07:13:43;233.65;;;60.67;;
50443;SDS011;36370;52.216;21.142;2022-11-25T07:17:45;246.18;;;62.63;;
50443;SDS011;36370;52.216;21.142;2022-11-25T07:21:47;243.48;;;73.00;;
50443;SDS011;36370;52.216;21.142;2022-11-25T07:25:49;241.13;;;70.07;;
50443;SDS011;36370;52.216;21.142;2022-11-25T07:29:51;230.82;;;73.43;;
50443;SDS011;36370;52.216;21.142;2022-11-25T07:34:14;184.70;;;51.75;;
50443;SDS011;36370;52.216;21.142;2022-11-25T07:38:21;203.80;;;60.97;;
50443;SDS011;36370;52.216;21.142;2022-11-25T07:42:22;183.30;;;53.75;;
50443;SDS011;36370;52.216;21.142;2022-11-25T07:46:29;154.82;;;48.92;;
50443;SDS011;36370;52.216;21.142;2022-11-25T07:50:33;160.45;;;47.88;;
50443;SDS011;36370;52.216;21.142;2022-11-25T07:54:34;155.18;;;46.47;;
50443;SDS011;36370;52.216;21.142;2022-11-25T07:58:36;145.48;;;43.95;;
50443;SDS011;36370;52.216;21.142;2022-11-25T08:02:46;149.93;;;45.50;;
50443;SDS011;36370;52.216;21.142;2022-11-25T08:06:50;127.45;;;40.95;;
50443;SDS011;36370;52.216;21.142;2022-11-25T08:10:53;118.60;;;42.80;;
50443;SDS011;36370;52.216;21.142;2022-11-25T08:14:55;127.15;;;40.72;;
50443;SDS011;36370;52.216;21.142;2022-11-25T08:18:57;126.53;;;40.30;;
50443;SDS011;36370;52.216;21.142;2022-11-25T08:23:02;117.75;;;41.33;;
50443;SDS011;36370;52.216;21.142;2022-11-25T08:27:04;115.32;;;39.47;;
50443;SDS011;36370;52.216;21.142;2022-11-25T08:31:07;133.57;;;43.28;;
50443;SDS011;36370;52.216;21.142;2022-11-25T08:35:11;137.05;;;45.35;;
50443;SDS011;36370;52.216;21.142;2022-11-25T08:39:13;134.50;;;43.28;;
50443;SDS011;36370;52.216;21.142;2022-11-25T08:43:35;142.70;;;45.83;;
50443;SDS011;36370;52.216;21.142;2022-11-25T08:47:37;152.35;;;43.75;;
50443;SDS011;36370;52.216;21.142;2022-11-25T08:51:39;148.75;;;46.40;;
50443;SDS011;36370;52.216;21.142;2022-11-25T08:55:41;143.40;;;45.55;;
50443;SDS011;36370;52.216;21.142;2022-11-25T08:59:43;159.38;;;48.67;;
50443;SDS011;36370;52.216;21.142;2022-11-25T09:03:46;140.73;;;47.30;;
50443;SDS011;36370;52.216;21.142;2022-11-25T09:07:50;142.27;;;44.42;;
50443;SDS011;36370;52.216;21.142;2022-11-25T09:11:52;151.45;;;50.40;;
50443;SDS011;36370;52.216;21.142;2022-11-25T09:15:55;148.18;;;48.92;;
50443;SDS011;36370;52.216;21.142;2022-11-25T09:19:57;161.95;;;48.88;;
50443;SDS011;36370;52.216;21.142;2022-11-25T09:23:59;154.73;;;48.97;;
50443;SDS011;36370;52.216;21.142;2022-11-25T09:28:02;149.05;;;45.08;;
50443;SDS011;36370;52.216;21.142;2022-11-25T09:32:04;142.73;;;44.50;;
50443;SDS011;36370;52.216;21.142;2022-11-25T09:36:06;158.75;;;49.25;;
50443;SDS011;36370;52.216;21.142;2022-11-25T09:53:50;174.32;;;49.22;;
50443;SDS011;36370;52.216;21.142;2022-11-25T09:57:58;181.13;;;52.30;;
50443;SDS011;36370;52.216;21.142;2022-11-25T10:02:11;171.05;;;51.22;;
50443;SDS011;36370;52.216;21.142;2022-11-25T10:06:27;177.98;;;49.72;;
50443;SDS011;36370;52.216;21.142;2022-11-25T10:10:34;170.20;;;53.25;;
50443;SDS011;36370;52.216;21.142;2022-11-25T10:14:45;184.68;;;56.97;;
50443;SDS011;36370;52.216;21.142;2022-11-25T10:18:52;173.85;;;51.08;;
50443;SDS011;36370;52.216;21.142;2022-11-25T10:23:43;177.57;;;52.20;;
50443;SDS011;36370;52.216;21.142;2022-11-25T10:27:49;182.32;;;53.35;;
50443;SDS011;36370;52.216;21.142;2022-11-25T10:31:54;181.45;;;53.75;;
50443;SDS011;36370;52.216;21.142;2022-11-25T10:40:37;184.18;;;53.03;;
50443;SDS011;36370;52.216;21.142;2022-11-25T10:44:39;170.70;;;49.13;;
50443;SDS011;36370;52.216;21.142;2022-11-25T10:48:59;159.40;;;48.88;;
50443;SDS011;36370;52.216;21.142;2022-11-25T10:53:15;190.85;;;51.63;;
50443;SDS011;36370;52.216;21.142;2022-11-25T10:57:20;164.13;;;50.33;;
50443;SDS011;36370;52.216;21.142;2022-11-25T11:01:28;168.85;;;48.40;;
50443;SDS011;36370;52.216;21.142;2022-11-25T11:05:30;176.10;;;50.40;;
50443;SDS011;36370;52.216;21.142;2022-11-25T11:09:39;180.45;;;54.53;;
50443;SDS011;36370;52.216;21.142;2022-11-25T11:13:45;180.32;;;51.63;;
50443;SDS011;36370;52.216;21.142;2022-11-25T11:17:48;199.93;;;52.28;;
50443;SDS011;36370;52.216;21.142;2022-11-25T11:21:51;193.70;;;54.30;;
50443;SDS011;36370;52.216;21.142;2022-11-25T11:26:06;176.70;;;51.38;;
50443;SDS011;36370;52.216;21.142;2022-11-25T11:30:14;165.65;;;51.60;;
50443;SDS011;36370;52.216;21.142;2022-11-25T11:47:30;177.65;;;56.30;;
50443;SDS011;36370;52.216;21.142;2022-11-25T11:56:14;182.88;;;56.80;;
50443;SDS011;36370;52.216;21.142;2022-11-25T12:00:39;180.00;;;53.90;;
50443;SDS011;36370;52.216;21.142;2022-11-25T12:09:22;181.15;;;52.25;;
50443;SDS011;36370;52.216;21.142;2022-11-25T12:13:32;186.73;;;54.05;;
50443;SDS011;36370;52.216;21.142;2022-11-25T12:17:51;185.95;;;58.63;;
50443;SDS011;36370;52.216;21.142;2022-11-25T12:21:57;188.73;;;57.08;;
50443;SDS011;36370;52.216;21.142;2022-11-25T12:26:39;208.95;;;57.50;;
50443;SDS011;36370;52.216;21.142;2022-11-25T12:35:35;183.00;;;54.97;;
50443;SDS011;36370;52.216;21.142;2022-11-25T12:39:44;167.10;;;51.42;;
50443;SDS011;36370;52.216;21.142;2022-11-25T12:44:01;177.18;;;51.08;;
50443;SDS011;36370;52.216;21.142;2022-11-25T12:48:10;172.65;;;53.10;;
50443;SDS011;36370;52.216;21.142;2022-11-25T12:56:45;194.38;;;53.95;;
50443;SDS011;36370;52.216;21.142;2022-11-25T13:10:07;199.77;;;58.88;;
50443;SDS011;36370;52.216;21.142;2022-11-25T13:18:54;190.85;;;57.92;;
50443;SDS011;36370;52.216;21.142;2022-11-25T13:32:01;180.68;;;55.45;;
50443;SDS011;36370;52.216;21.142;2022-11-25T13:36:14;201.85;;;61.15;;
50443;SDS011;36370;52.216;21.142;2022-11-25T13:44:27;203.27;;;62.92;;
50443;SDS011;36370;52.216;21.142;2022-11-25T13:48:36;209.65;;;59.95;;
50443;SDS011;36370;52.216;21.142;2022-11-25T13:57:23;183.43;;;59.25;;
50443;SDS011;36370;52.216;21.142;2022-11-25T14:01:25;198.48;;;60.63;;
50443;SDS011;36370;52.216;21.142;2022-11-25T14:05:42;201.88;;;62.72;;
50443;SDS011;36370;52.216;21.142;2022-11-25T14:14:34;171.70;;;56.10;;
50443;SDS011;36370;52.216;21.142;2022-11-25T14:18:55;199.32;;;63.83;;
50443;SDS011;36370;52.216;21.142;2022-11-25T14:23:45;189.80;;;59.72;;
50443;SDS011;36370;52.216;21.142;2022-11-25T14:28:07;196.88;;;61.78;;
50443;SDS011;36370;52.216;21.142;2022-11-25T14:32:19;194.88;;;57.08;;
50443;SDS011;36370;52.216;21.142;2022-11-25T14:36:28;183.40;;;56.95;;
50443;SDS011;36370;52.216;21.142;2022-11-25T14:44:51;200.82;;;63.45;;
50443;SDS011;36370;52.216;21.142;2022-11-25T14:48:58;185.27;;;57.00;;
50443;SDS011;36370;52.216;21.142;2022-11-25T14:53:05;184.50;;;59.90;;
50443;SDS011;36370;52.216;21.142;2022-11-25T14:57:09;180.70;;;56.47;;
50443;SDS011;36370;52.216;21.142;2022-11-25T15:01:21;175.23;;;58.47;;
50443;SDS011;36370;52.216;21.142;2022-11-25T15:05:29;191.77;;;58.25;;
50443;SDS011;36370;52.216;21.142;2022-11-25T15:09:40;196.13;;;59.08;;
50443;SDS011;36370;52.216;21.142;2022-11-25T15:13:44;175.93;;;62.78;;
50443;SDS011;36370;52.216;21.142;2022-11-25T15:17:48;196.05;;;63.58;;
50443;SDS011;36370;52.216;21.142;2022-11-25T15:21:55;217.05;;;65.30;;
50443;SDS011;36370;52.216;21.142;2022-11-25T15:26:23;176.35;;;58.45;;
50443;SDS011;36370;52.216;21.142;2022-11-25T15:30:27;232.57;;;69.68;;
50443;SDS011;36370;52.216;21.142;2022-11-25T15:34:32;203.27;;;65.05;;
50443;SDS011;36370;52.216;21.142;2022-11-25T15:38:39;191.15;;;64.68;;
50443;SDS011;36370;52.216;21.142;2022-11-25T15:42:45;199.27;;;64.40;;
50443;SDS011;36370;52.216;21.142;2022-11-25T15:47:01;185.30;;;60.58;;
50443;SDS011;36370;52.216;21.142;2022-11-25T15:51:23;187.65;;;62.53;;
50443;SDS011;36370;52.216;21.142;2022-11-25T15:55:45;211.02;;;66.90;;
50443;SDS011;36370;52.216;21.142;2022-11-25T16:00:01;225.10;;;76.90;;
50443;SDS011;36370;52.216;21.142;2022-11-25T16:08:27;203.32;;;65.15;;
50443;SDS011;36370;52.216;21.142;2022-11-25T16:12:37;244.15;;;73.63;;
50443;SDS011;36370;52.216;21.142;2022-11-25T16:16:39;242.25;;;78.85;;
50443;SDS011;36370;52.216;21.142;2022-11-25T16:20:48;207.35;;;70.78;;
50443;SDS011;36370;52.216;21.142;2022-11-25T16:24:52;217.82;;;69.32;;
50443;SDS011;36370;52.216;21.142;2022-11-25T16:29:24;225.90;;;72.32;;
50443;SDS011;36370;52.216;21.142;2022-11-25T16:33:34;221.32;;;72.25;;
50443;SDS011;36370;52.216;21.142;2022-11-25T16:37:36;229.15;;;77.10;;
50443;SDS011;36370;52.216;21.142;2022-11-25T16:41:38;214.75;;;73.75;;
50443;SDS011;36370;52.216;21.142;2022-11-25T16:45:41;221.68;;;76.38;;
50443;SDS011;36370;52.216;21.142;2022-11-25T16:49:43;219.00;;;74.82;;
50443;SDS011;36370;52.216;21.142;2022-11-25T16:53:45;245.05;;;83.55;;
50443;SDS011;36370;52.216;21.142;2022-11-25T16:57:47;219.25;;;74.72;;
50443;SDS011;36370;52.216;21.142;2022-11-25T17:01:50;255.20;;;85.53;;
50443;SDS011;36370;52.216;21.142;2022-11-25T17:05:53;215.90;;;76.22;;
50443;SDS011;36370;52.216;21.142;2022-11-25T17:09:55;208.48;;;77.05;;
50443;SDS011;36370;52.216;21.142;2022-11-25T17:13:58;268.08;;;90.93;;
50443;SDS011;36370;52.216;21.142;2022-11-25T17:18:03;235.82;;;89.82;;
50443;SDS011;36370;52.216;21.142;2022-11-25T17:22:15;244.82;;;97.78;;
50443;SDS011;36370;52.216;21.142;2022-11-25T17:26:21;246.35;;;92.15;;
50443;SDS011;36370;52.216;21.142;2022-11-25T17:30:36;267.00;;;94.72;;
50443;SDS011;36370;52.216;21.142;2022-11-25T17:34:39;235.45;;;90.53;;
50443;SDS011;36370;52.216;21.142;2022-11-25T17:38:40;246.48;;;87.63;;
50443;SDS011;36370;52.216;21.142;2022-11-25T17:42:43;264.88;;;91.75;;
50443;SDS011;36370;52.216;21.142;2022-11-25T17:46:46;272.50;;;97.18;;
50443;SDS011;36370;52.216;21.142;2022-11-25T17:50:48;247.82;;;88.60;;
50443;SDS011;36370;52.216;21.142;2022-11-25T17:54:50;261.92;;;97.70;;
50443;SDS011;36370;52.216;21.142;2022-11-25T17:58:52;391.60;;;127.50;;
50443;SDS011;36370;52.216;21.142;2022-11-25T18:02:55;273.77;;;101.28;;
50443;SDS011;36370;52.216;21.142;2022-11-25T18:06:57;292.88;;;100.10;;
50443;SDS011;36370;52.216;21.142;2022-11-25T18:10:59;269.15;;;99.10;;
50443;SDS011;36370;52.216;21.142;2022-11-25T18:15:05;270.90;;;96.70;;
50443;SDS011;36370;52.216;21.142;2022-11-25T18:19:11;294.00;;;102.53;;
50443;SDS011;36370;52.216;21.142;2022-11-25T18:23:14;317.10;;;106.10;;
50443;SDS011;36370;52.216;21.142;2022-11-25T18:27:20;289.88;;;98.70;;
50443;SDS011;36370;52.216;21.142;2022-11-25T18:31:25;301.60;;;98.22;;
50443;SDS011;36370;52.216;21.142;2022-11-25T18:35:29;319.00;;;101.53;;
50443;SDS011;36370;52.216;21.142;2022-11-25T18:39:37;315.20;;;103.90;;
50443;SDS011;36370;52.216;21.142;2022-11-25T18:43:41;279.83;;;90.55;;
50443;SDS011;36370;52.216;21.142;2022-11-25T18:47:43;311.00;;;92.70;;
50443;SDS011;36370;52.216;21.142;2022-11-25T18:51:45;308.85;;;92.78;;
50443;SDS011;36370;52.216;21.142;2022-11-25T18:55:47;339.95;;;97.65;;
50443;SDS011;36370;52.216;21.142;2022-11-25T18:59:50;297.33;;;90.38;;
50443;SDS011;36370;52.216;21.142;2022-11-25T19:04:15;299.95;;;94.15;;
50443;SDS011;36370;52.216;21.142;2022-11-25T19:08:16;320.42;;;98.28;;
50443;SDS011;36370;52.216;21.142;2022-11-25T19:12:21;371.98;;;109.65;;
50443;SDS011;36370;52.216;21.142;2022-11-25T19:16:23;298.55;;;94.50;;
50443;SDS011;36370;52.216;21.142;2022-11-25T19:20:27;307.52;;;94.50;;
50443;SDS011;36370;52.216;21.142;2022-11-25T19:24:30;322.08;;;92.60;;
50443;SDS011;36370;52.216;21.142;2022-11-25T19:28:32;336.23;;;94.38;;
50443;SDS011;36370;52.216;21.142;2022-11-25T19:32:35;333.23;;;98.43;;
50443;SDS011;36370;52.216;21.142;2022-11-25T19:36:37;274.27;;;85.53;;
50443;SDS011;36370;52.216;21.142;2022-11-25T19:40:39;350.67;;;95.95;;
50443;SDS011;36370;52.216;21.142;2022-11-25T19:44:41;275.40;;;85.28;;
50443;SDS011;36370;52.216;21.142;2022-11-25T19:48:44;268.83;;;83.28;;
50443;SDS011;36370;52.216;21.142;2022-11-25T19:52:47;339.33;;;96.32;;
50443;SDS011;36370;52.216;21.142;2022-11-25T19:56:50;365.92;;;100.65;;
50443;SDS011;36370;52.216;21.142;2022-11-25T20:00:52;338.48;;;93.15;;
50443;SDS011;36370;52.216;21.142;2022-11-25T20:05:03;299.65;;;89.53;;
50443;SDS011;36370;52.216;21.142;2022-11-25T20:09:08;289.73;;;86.55;;
50443;SDS011;36370;52.216;21.142;2022-11-25T20:13:12;344.05;;;96.25;;
50443;SDS011;36370;52.216;21.142;2022-11-25T20:21:36;330.58;;;103.20;;
50443;SDS011;36370;52.216;21.142;2022-11-25T20:25:44;324.70;;;93.50;;
50443;SDS011;36370;52.216;21.142;2022-11-25T20:29:48;300.10;;;90.53;;
50443;SDS011;36370;52.216;21.142;2022-11-25T20:33:50;306.52;;;91.95;;
50443;SDS011;36370;52.216;21.142;2022-11-25T20:37:52;276.77;;;89.20;;
50443;SDS011;36370;52.216;21.142;2022-11-25T20:42:01;317.92;;;93.57;;
50443;SDS011;36370;52.216;21.142;2022-11-25T20:46:04;372.52;;;96.22;;
50443;SDS011;36370;52.216;21.142;2022-11-25T20:50:08;362.67;;;98.55;;
50443;SDS011;36370;52.216;21.142;2022-11-25T20:54:13;277.83;;;86.00;;
50443;SDS011;36370;52.216;21.142;2022-11-25T20:58:19;346.33;;;95.30;;
50443;SDS011;36370;52.216;21.142;2022-11-25T21:02:25;402.13;;;97.57;;
50443;SDS011;36370;52.216;21.142;2022-11-25T21:06:28;309.65;;;86.28;;
50443;SDS011;36370;52.216;21.142;2022-11-25T21:10:31;346.92;;;93.00;;
50443;SDS011;36370;52.216;21.142;2022-11-25T21:14:35;325.92;;;91.07;;
50443;SDS011;36370;52.216;21.142;2022-11-25T21:18:37;296.42;;;87.95;;
50443;SDS011;36370;52.216;21.142;2022-11-25T21:22:42;486.08;;;121.05;;
50443;SDS011;36370;52.216;21.142;2022-11-25T21:26:46;350.95;;;94.47;;
50443;SDS011;36370;52.216;21.142;2022-11-25T21:30:48;361.08;;;94.95;;
50443;SDS011;36370;52.216;21.142;2022-11-25T21:34:50;372.05;;;101.20;;
50443;SDS011;36370;52.216;21.142;2022-11-25T21:38:56;373.15;;;100.88;;
50443;SDS011;36370;52.216;21.142;2022-11-25T21:43:04;456.10;;;113.95;;
50443;SDS011;36370;52.216;21.142;2022-11-25T21:47:11;277.77;;;89.88;;
50443;SDS011;36370;52.216;21.142;2022-11-25T21:51:19;317.38;;;94.15;;
50443;SDS011;36370;52.216;21.142;2022-11-25T21:55:25;361.75;;;103.00;;
50443;SDS011;36370;52.216;21.142;2022-11-25T21:59:27;302.90;;;93.15;;
50443;SDS011;36370;52.216;21.142;2022-11-25T22:03:30;344.92;;;101.20;;
50443;SDS011;36370;52.216;21.142;2022-11-25T22:07:32;365.92;;;103.28;;
50443;SDS011;36370;52.216;21.142;2022-11-25T22:11:35;285.40;;;91.93;;
50443;SDS011;36370;52.216;21.142;2022-11-25T22:15:38;421.35;;;104.47;;
50443;SDS011;36370;52.216;21.142;2022-11-25T22:19:41;403.75;;;114.00;;
50443;SDS011;36370;52.216;21.142;2022-11-25T22:23:43;443.48;;;113.38;;
50443;SDS011;36370;52.216;21.142;2022-11-25T22:27:45;431.88;;;121.70;;
50443;SDS011;36370;52.216;21.142;2022-11-25T22:31:48;405.70;;;113.85;;
50443;SDS011;36370;52.216;21.142;2022-11-25T22:35:51;441.88;;;115.25;;
50443;SDS011;36370;52.216;21.142;2022-11-25T22:39:52;609.58;;;139.80;;
50443;SDS011;36370;52.216;21.142;2022-11-25T22:43:54;539.05;;;133.27;;
50443;SDS011;36370;52.216;21.142;2022-11-25T22:47:56;454.33;;;123.05;;
50443;SDS011;36370;52.216;21.142;2022-11-25T22:52:00;533.33;;;132.38;;
50443;SDS011;36370;52.216;21.142;2022-11-25T22:56:02;505.75;;;126.60;;
50443;SDS011;36370;52.216;21.142;2022-11-25T23:00:05;465.85;;;119.22;;
50443;SDS011;36370;52.216;21.142;2022-11-25T23:04:13;521.97;;;128.50;;
50443;SDS011;36370;52.216;21.142;2022-11-25T23:08:18;486.58;;;118.35;;
50443;SDS011;36370;52.216;21.142;2022-11-25T23:12:20;476.05;;;123.43;;
50443;SDS011;36370;52.216;21.142;2022-11-25T23:16:22;398.08;;;113.03;;
50443;SDS011;36370;52.216;21.142;2022-11-25T23:20:35;519.35;;;125.30;;
50443;SDS011;36370;52.216;21.142;2022-11-25T23:24:45;446.60;;;116.07;;
50443;SDS011;36370;52.216;21.142;2022-11-25T23:28:48;425.45;;;114.13;;
50443;SDS011;36370;52.216;21.142;2022-11-25T23:32:51;543.63;;;137.90;;
50443;SDS011;36370;52.216;21.142;2022-11-25T23:36:53;413.70;;;111.05;;
50443;SDS011;36370;52.216;21.142;2022-11-25T23:40:56;459.00;;;115.63;;
50443;SDS011;36370;52.216;21.142;2022-11-25T23:44:58;412.25;;;109.78;;
50443;SDS011;36370;52.216;21.142;2022-11-25T23:49:01;375.45;;;103.40;;
50443;SDS011;36370;52.216;21.142;2022-11-25T23:53:04;444.40;;;119.13;;
50443;SDS011;36370;52.216;21.142;2022-11-25T23:57:11;540.33;;;131.93;;
